sensor_id;sensor_type;location;lat;lon;timestamp;P1;durP1;ratioP1;P2;durP2;ratioP2
1366;SDS011;16877;48.810;9.282;2022-08-18T00:01:37;6.93;;;6.10;;
1366;SDS011;16877;48.810;9.282;2022-08-18T00:04:05;7.00;;;6.40;;
1366;SDS011;16877;48.810;9.282;2022-08-18T00:06:33;7.80;;;6.60;;
1366;SDS011;16877;48.810;9.282;2022-08-18T00:09:01;8.50;;;7.70;;
1366;SDS011;16877;48.810;9.282;2022-08-18T00:11:32;7.50;;;6.80;;
1366;SDS011;16877;48.810;9.282;2022-08-18T00:14:04;7.70;;;6.90;;
1366;SDS011;16877;48.810;9.282;2022-08-18T00:16:31;7.33;;;6.63;;
1366;SDS011;16877;48.810;9.282;2022-08-18T00:18:58;8.07;;;7.23;;
1366;SDS011;16877;48.810;9.282;2022-08-18T00:21:24;7.50;;;6.70;;
1366;SDS011;16877;48.810;9.282;2022-08-18T00:23:53;7.23;;;6.63;;
1366;SDS011;16877;48.810;9.282;2022-08-18T00:26:20;7.17;;;6.53;;
1366;SDS011;16877;48.810;9.282;2022-08-18T00:28:47;6.70;;;6.17;;
1366;SDS011;16877;48.810;9.282;2022-08-18T00:31:14;7.43;;;6.77;;
1366;SDS011;16877;48.810;9.282;2022-08-18T00:33:40;5.73;;;5.23;;
1366;SDS011;16877;48.810;9.282;2022-08-18T00:36:08;7.10;;;6.40;;
1366;SDS011;16877;48.810;9.282;2022-08-18T00:38:34;5.43;;;4.90;;
1366;SDS011;16877;48.810;9.282;2022-08-18T00:41:03;5.30;;;4.73;;
1366;SDS011;16877;48.810;9.282;2022-08-18T00:43:31;5.47;;;5.00;;
1366;SDS011;16877;48.810;9.282;2022-08-18T00:46:04;5.23;;;4.73;;
1366;SDS011;16877;48.810;9.282;2022-08-18T00:48:32;6.07;;;5.47;;
1366;SDS011;16877;48.810;9.282;2022-08-18T00:51:01;5.03;;;4.53;;
1366;SDS011;16877;48.810;9.282;2022-08-18T00:53:33;5.50;;;5.00;;
1366;SDS011;16877;48.810;9.282;2022-08-18T00:56:04;5.30;;;4.73;;
1366;SDS011;16877;48.810;9.282;2022-08-18T00:58:35;5.30;;;4.80;;
1366;SDS011;16877;48.810;9.282;2022-08-18T01:01:12;5.07;;;4.57;;
1366;SDS011;16877;48.810;9.282;2022-08-18T01:03:40;5.80;;;5.30;;
1366;SDS011;16877;48.810;9.282;2022-08-18T01:06:19;6.00;;;5.40;;
1366;SDS011;16877;48.810;9.282;2022-08-18T01:08:51;6.00;;;5.40;;
1366;SDS011;16877;48.810;9.282;2022-08-18T01:11:19;6.83;;;6.17;;
1366;SDS011;16877;48.810;9.282;2022-08-18T01:13:46;6.00;;;5.13;;
1366;SDS011;16877;48.810;9.282;2022-08-18T01:16:13;5.83;;;5.23;;
1366;SDS011;16877;48.810;9.282;2022-08-18T01:18:57;5.90;;;5.30;;
1366;SDS011;16877;48.810;9.282;2022-08-18T01:21:42;5.77;;;5.00;;
1366;SDS011;16877;48.810;9.282;2022-08-18T01:24:19;8.20;;;5.80;;
1366;SDS011;16877;48.810;9.282;2022-08-18T01:27:09;5.33;;;4.83;;
1366;SDS011;16877;48.810;9.282;2022-08-18T01:29:36;5.70;;;5.00;;
1366;SDS011;16877;48.810;9.282;2022-08-18T01:32:03;6.90;;;5.80;;
1366;SDS011;16877;48.810;9.282;2022-08-18T01:34:30;6.13;;;5.10;;
1366;SDS011;16877;48.810;9.282;2022-08-18T01:36:57;6.30;;;5.70;;
1366;SDS011;16877;48.810;9.282;2022-08-18T01:39:25;6.17;;;5.40;;
1366;SDS011;16877;48.810;9.282;2022-08-18T01:41:52;5.97;;;5.37;;
1366;SDS011;16877;48.810;9.282;2022-08-18T01:44:18;5.47;;;4.90;;
1366;SDS011;16877;48.810;9.282;2022-08-18T01:46:45;6.20;;;5.60;;
1366;SDS011;16877;48.810;9.282;2022-08-18T01:49:12;6.20;;;5.60;;
1366;SDS011;16877;48.810;9.282;2022-08-18T01:51:38;8.30;;;5.40;;
1366;SDS011;16877;48.810;9.282;2022-08-18T01:54:10;6.53;;;5.83;;
1366;SDS011;16877;48.810;9.282;2022-08-18T01:56:40;6.70;;;5.30;;
1366;SDS011;16877;48.810;9.282;2022-08-18T01:59:08;6.93;;;6.33;;
1366;SDS011;16877;48.810;9.282;2022-08-18T02:01:38;6.83;;;6.23;;
1366;SDS011;16877;48.810;9.282;2022-08-18T02:04:07;6.47;;;5.87;;
1366;SDS011;16877;48.810;9.282;2022-08-18T02:06:36;6.63;;;5.80;;
1366;SDS011;16877;48.810;9.282;2022-08-18T02:09:03;5.53;;;5.03;;
1366;SDS011;16877;48.810;9.282;2022-08-18T02:11:30;5.80;;;5.30;;
1366;SDS011;16877;48.810;9.282;2022-08-18T02:13:58;5.93;;;5.30;;
1366;SDS011;16877;48.810;9.282;2022-08-18T02:16:25;6.03;;;5.53;;
1366;SDS011;16877;48.810;9.282;2022-08-18T02:18:52;6.43;;;5.83;;
1366;SDS011;16877;48.810;9.282;2022-08-18T02:21:19;6.30;;;5.70;;
1366;SDS011;16877;48.810;9.282;2022-08-18T02:23:47;6.23;;;5.73;;
1366;SDS011;16877;48.810;9.282;2022-08-18T02:26:14;6.40;;;5.73;;
1366;SDS011;16877;48.810;9.282;2022-08-18T02:28:42;5.93;;;5.43;;
1366;SDS011;16877;48.810;9.282;2022-08-18T02:31:11;6.30;;;5.70;;
1366;SDS011;16877;48.810;9.282;2022-08-18T02:33:40;6.23;;;5.63;;
1366;SDS011;16877;48.810;9.282;2022-08-18T02:36:07;6.00;;;5.40;;
1366;SDS011;16877;48.810;9.282;2022-08-18T02:38:35;6.00;;;5.47;;
1366;SDS011;16877;48.810;9.282;2022-08-18T02:41:02;5.83;;;5.33;;
1366;SDS011;16877;48.810;9.282;2022-08-18T02:43:32;6.30;;;5.80;;
1366;SDS011;16877;48.810;9.282;2022-08-18T02:45:58;5.90;;;5.40;;
1366;SDS011;16877;48.810;9.282;2022-08-18T02:48:26;6.77;;;6.17;;
1366;SDS011;16877;48.810;9.282;2022-08-18T02:50:58;6.13;;;5.53;;
1366;SDS011;16877;48.810;9.282;2022-08-18T02:53:26;6.20;;;5.60;;
1366;SDS011;16877;48.810;9.282;2022-08-18T02:55:53;6.57;;;5.97;;
1366;SDS011;16877;48.810;9.282;2022-08-18T02:58:20;6.90;;;6.20;;
1366;SDS011;16877;48.810;9.282;2022-08-18T03:00:47;7.47;;;6.77;;
1366;SDS011;16877;48.810;9.282;2022-08-18T03:03:14;7.20;;;6.60;;
1366;SDS011;16877;48.810;9.282;2022-08-18T03:05:42;7.20;;;6.60;;
1366;SDS011;16877;48.810;9.282;2022-08-18T03:08:08;7.77;;;6.83;;
1366;SDS011;16877;48.810;9.282;2022-08-18T03:10:35;7.37;;;6.73;;
1366;SDS011;16877;48.810;9.282;2022-08-18T03:13:03;6.93;;;6.33;;
1366;SDS011;16877;48.810;9.282;2022-08-18T03:15:30;6.20;;;5.60;;
1366;SDS011;16877;48.810;9.282;2022-08-18T03:17:57;6.80;;;6.20;;
1366;SDS011;16877;48.810;9.282;2022-08-18T03:20:24;7.23;;;6.63;;
1366;SDS011;16877;48.810;9.282;2022-08-18T03:22:53;7.30;;;6.60;;
1366;SDS011;16877;48.810;9.282;2022-08-18T03:25:19;6.73;;;5.50;;
1366;SDS011;16877;48.810;9.282;2022-08-18T03:27:46;6.27;;;5.73;;
1366;SDS011;16877;48.810;9.282;2022-08-18T03:30:13;8.80;;;7.00;;
1366;SDS011;16877;48.810;9.282;2022-08-18T03:32:40;6.83;;;6.13;;
1366;SDS011;16877;48.810;9.282;2022-08-18T03:35:07;5.40;;;4.90;;
1366;SDS011;16877;48.810;9.282;2022-08-18T03:37:34;6.00;;;5.50;;
1366;SDS011;16877;48.810;9.282;2022-08-18T03:40:02;6.03;;;5.53;;
1366;SDS011;16877;48.810;9.282;2022-08-18T03:42:29;6.17;;;5.67;;
1366;SDS011;16877;48.810;9.282;2022-08-18T03:44:56;7.23;;;5.80;;
1366;SDS011;16877;48.810;9.282;2022-08-18T03:47:23;5.73;;;5.23;;
1366;SDS011;16877;48.810;9.282;2022-08-18T03:49:51;6.70;;;6.10;;
1366;SDS011;16877;48.810;9.282;2022-08-18T03:52:18;6.63;;;5.90;;
1366;SDS011;16877;48.810;9.282;2022-08-18T03:54:45;6.10;;;5.50;;
1366;SDS011;16877;48.810;9.282;2022-08-18T03:57:13;6.10;;;5.57;;
1366;SDS011;16877;48.810;9.282;2022-08-18T03:59:40;6.87;;;6.27;;
1366;SDS011;16877;48.810;9.282;2022-08-18T04:02:07;6.40;;;5.80;;
1366;SDS011;16877;48.810;9.282;2022-08-18T04:04:35;6.60;;;6.00;;
1366;SDS011;16877;48.810;9.282;2022-08-18T04:07:04;6.67;;;5.70;;
1366;SDS011;16877;48.810;9.282;2022-08-18T04:09:32;6.70;;;6.10;;
1366;SDS011;16877;48.810;9.282;2022-08-18T04:12:02;7.13;;;6.53;;
1366;SDS011;16877;48.810;9.282;2022-08-18T04:14:35;6.43;;;5.80;;
1366;SDS011;16877;48.810;9.282;2022-08-18T04:17:03;6.97;;;6.33;;
1366;SDS011;16877;48.810;9.282;2022-08-18T04:19:30;7.13;;;6.47;;
1366;SDS011;16877;48.810;9.282;2022-08-18T04:21:58;6.97;;;5.80;;
1366;SDS011;16877;48.810;9.282;2022-08-18T04:24:27;6.50;;;5.90;;
1366;SDS011;16877;48.810;9.282;2022-08-18T04:26:55;6.23;;;5.73;;
1366;SDS011;16877;48.810;9.282;2022-08-18T04:29:23;7.50;;;6.80;;
1366;SDS011;16877;48.810;9.282;2022-08-18T04:31:51;7.03;;;6.43;;
1366;SDS011;16877;48.810;9.282;2022-08-18T04:34:19;7.03;;;6.27;;
1366;SDS011;16877;48.810;9.282;2022-08-18T04:36:46;6.90;;;6.30;;
1366;SDS011;16877;48.810;9.282;2022-08-18T04:39:17;7.33;;;6.63;;
1366;SDS011;16877;48.810;9.282;2022-08-18T04:41:45;6.67;;;6.10;;
1366;SDS011;16877;48.810;9.282;2022-08-18T04:44:12;6.00;;;5.50;;
1366;SDS011;16877;48.810;9.282;2022-08-18T04:46:42;6.80;;;6.10;;
1366;SDS011;16877;48.810;9.282;2022-08-18T04:49:12;6.53;;;5.83;;
1366;SDS011;16877;48.810;9.282;2022-08-18T04:51:41;5.60;;;5.10;;
1366;SDS011;16877;48.810;9.282;2022-08-18T04:54:29;7.27;;;5.77;;
1366;SDS011;16877;48.810;9.282;2022-08-18T04:56:55;5.37;;;4.87;;
1366;SDS011;16877;48.810;9.282;2022-08-18T04:59:22;5.83;;;5.30;;
1366;SDS011;16877;48.810;9.282;2022-08-18T05:01:48;5.67;;;5.07;;
1366;SDS011;16877;48.810;9.282;2022-08-18T05:04:16;6.50;;;5.90;;
1366;SDS011;16877;48.810;9.282;2022-08-18T05:06:43;5.83;;;5.27;;
1366;SDS011;16877;48.810;9.282;2022-08-18T05:09:12;6.40;;;5.80;;
1366;SDS011;16877;48.810;9.282;2022-08-18T05:11:40;6.40;;;5.77;;
1366;SDS011;16877;48.810;9.282;2022-08-18T05:14:08;6.27;;;5.70;;
1366;SDS011;16877;48.810;9.282;2022-08-18T05:16:35;6.87;;;6.27;;
1366;SDS011;16877;48.810;9.282;2022-08-18T05:19:04;6.30;;;5.70;;
1366;SDS011;16877;48.810;9.282;2022-08-18T05:21:34;6.23;;;5.67;;
1366;SDS011;16877;48.810;9.282;2022-08-18T05:24:02;6.97;;;6.37;;
1366;SDS011;16877;48.810;9.282;2022-08-18T05:26:29;6.83;;;6.23;;
1366;SDS011;16877;48.810;9.282;2022-08-18T05:28:57;6.70;;;6.10;;
1366;SDS011;16877;48.810;9.282;2022-08-18T05:31:25;5.87;;;5.37;;
1366;SDS011;16877;48.810;9.282;2022-08-18T05:33:53;6.00;;;5.50;;
1366;SDS011;16877;48.810;9.282;2022-08-18T05:36:26;7.70;;;6.23;;
1366;SDS011;16877;48.810;9.282;2022-08-18T05:39:12;6.10;;;5.50;;
1366;SDS011;16877;48.810;9.282;2022-08-18T05:41:47;6.17;;;5.67;;
1366;SDS011;16877;48.810;9.282;2022-08-18T05:44:18;6.00;;;5.50;;
1366;SDS011;16877;48.810;9.282;2022-08-18T05:46:49;6.33;;;5.73;;
1366;SDS011;16877;48.810;9.282;2022-08-18T05:49:17;7.40;;;6.47;;
1366;SDS011;16877;48.810;9.282;2022-08-18T05:51:47;8.30;;;6.20;;
1366;SDS011;16877;48.810;9.282;2022-08-18T05:54:17;7.47;;;6.77;;
1366;SDS011;16877;48.810;9.282;2022-08-18T05:57:04;7.03;;;6.43;;
1366;SDS011;16877;48.810;9.282;2022-08-18T05:59:37;7.77;;;6.80;;
1366;SDS011;16877;48.810;9.282;2022-08-18T06:02:14;6.97;;;6.30;;
1366;SDS011;16877;48.810;9.282;2022-08-18T06:04:55;6.73;;;6.13;;
1366;SDS011;16877;48.810;9.282;2022-08-18T06:07:30;6.97;;;6.33;;
1366;SDS011;16877;48.810;9.282;2022-08-18T06:10:01;8.60;;;5.70;;
1366;SDS011;16877;48.810;9.282;2022-08-18T06:12:32;7.43;;;6.53;;
1366;SDS011;16877;48.810;9.282;2022-08-18T06:15:03;7.47;;;6.87;;
1366;SDS011;16877;48.810;9.282;2022-08-18T06:17:50;6.43;;;5.83;;
1366;SDS011;16877;48.810;9.282;2022-08-18T06:20:41;7.50;;;6.60;;
1366;SDS011;16877;48.810;9.282;2022-08-18T06:23:21;7.03;;;6.33;;
1366;SDS011;16877;48.810;9.282;2022-08-18T06:25:56;8.07;;;6.43;;
1366;SDS011;16877;48.810;9.282;2022-08-18T06:28:37;7.37;;;6.43;;
1366;SDS011;16877;48.810;9.282;2022-08-18T06:31:17;6.47;;;5.87;;
1366;SDS011;16877;48.810;9.282;2022-08-18T06:33:52;6.47;;;5.87;;
1366;SDS011;16877;48.810;9.282;2022-08-18T06:36:31;6.50;;;5.80;;
1366;SDS011;16877;48.810;9.282;2022-08-18T06:39:06;7.10;;;6.40;;
1366;SDS011;16877;48.810;9.282;2022-08-18T06:41:42;6.27;;;5.67;;
1366;SDS011;16877;48.810;9.282;2022-08-18T06:44:15;6.50;;;5.60;;
1366;SDS011;16877;48.810;9.282;2022-08-18T06:46:47;15.23;;;6.10;;
1366;SDS011;16877;48.810;9.282;2022-08-18T06:49:27;7.90;;;6.40;;
1366;SDS011;16877;48.810;9.282;2022-08-18T06:54:44;6.80;;;6.20;;
1366;SDS011;16877;48.810;9.282;2022-08-18T06:57:20;7.00;;;6.40;;
1366;SDS011;16877;48.810;9.282;2022-08-18T06:59:53;6.70;;;5.93;;
1366;SDS011;16877;48.810;9.282;2022-08-18T07:02:22;6.60;;;6.00;;
1366;SDS011;16877;48.810;9.282;2022-08-18T07:04:59;7.60;;;6.90;;
1366;SDS011;16877;48.810;9.282;2022-08-18T07:07:30;6.70;;;6.10;;
1366;SDS011;16877;48.810;9.282;2022-08-18T07:10:00;6.73;;;6.10;;
1366;SDS011;16877;48.810;9.282;2022-08-18T07:12:27;6.10;;;5.60;;
1366;SDS011;16877;48.810;9.282;2022-08-18T07:14:56;6.07;;;5.57;;
1366;SDS011;16877;48.810;9.282;2022-08-18T07:17:26;8.13;;;5.90;;
1366;SDS011;16877;48.810;9.282;2022-08-18T07:19:59;7.50;;;6.33;;
1366;SDS011;16877;48.810;9.282;2022-08-18T07:22:29;6.50;;;5.90;;
1366;SDS011;16877;48.810;9.282;2022-08-18T07:24:56;8.97;;;6.43;;
1366;SDS011;16877;48.810;9.282;2022-08-18T07:27:46;8.83;;;7.80;;
1366;SDS011;16877;48.810;9.282;2022-08-18T07:30:24;7.60;;;6.90;;
1366;SDS011;16877;48.810;9.282;2022-08-18T07:32:57;8.87;;;6.73;;
1366;SDS011;16877;48.810;9.282;2022-08-18T07:35:31;9.20;;;6.20;;
1366;SDS011;16877;48.810;9.282;2022-08-18T07:38:03;7.03;;;6.33;;
1366;SDS011;16877;48.810;9.282;2022-08-18T07:40:43;6.70;;;6.00;;
1366;SDS011;16877;48.810;9.282;2022-08-18T07:43:15;6.90;;;6.20;;
1366;SDS011;16877;48.810;9.282;2022-08-18T07:45:47;7.97;;;6.20;;
1366;SDS011;16877;48.810;9.282;2022-08-18T07:48:14;7.03;;;6.47;;
1366;SDS011;16877;48.810;9.282;2022-08-18T07:50:47;7.00;;;6.40;;
1366;SDS011;16877;48.810;9.282;2022-08-18T07:53:24;7.50;;;6.80;;
1366;SDS011;16877;48.810;9.282;2022-08-18T07:56:00;7.30;;;6.60;;
1366;SDS011;16877;48.810;9.282;2022-08-18T07:58:33;8.73;;;7.87;;
1366;SDS011;16877;48.810;9.282;2022-08-18T08:01:08;9.20;;;8.30;;
1366;SDS011;16877;48.810;9.282;2022-08-18T08:03:42;7.80;;;7.10;;
1366;SDS011;16877;48.810;9.282;2022-08-18T08:06:18;9.07;;;8.17;;
1366;SDS011;16877;48.810;9.282;2022-08-18T08:08:50;6.57;;;5.87;;
1366;SDS011;16877;48.810;9.282;2022-08-18T08:11:36;7.57;;;6.87;;
1366;SDS011;16877;48.810;9.282;2022-08-18T08:14:15;9.20;;;6.40;;
1366;SDS011;16877;48.810;9.282;2022-08-18T08:16:56;7.20;;;6.47;;
1366;SDS011;16877;48.810;9.282;2022-08-18T08:19:42;6.77;;;6.17;;
1366;SDS011;16877;48.810;9.282;2022-08-18T08:22:28;7.33;;;6.63;;
1366;SDS011;16877;48.810;9.282;2022-08-18T08:25:00;6.03;;;5.43;;
1366;SDS011;16877;48.810;9.282;2022-08-18T08:27:35;6.10;;;5.60;;
1366;SDS011;16877;48.810;9.282;2022-08-18T08:30:14;6.17;;;5.67;;
1366;SDS011;16877;48.810;9.282;2022-08-18T08:32:45;6.20;;;5.63;;
1366;SDS011;16877;48.810;9.282;2022-08-18T08:35:25;6.10;;;5.50;;
1366;SDS011;16877;48.810;9.282;2022-08-18T08:37:59;5.97;;;5.47;;
1366;SDS011;16877;48.810;9.282;2022-08-18T08:40:31;6.00;;;5.40;;
1366;SDS011;16877;48.810;9.282;2022-08-18T08:43:07;6.00;;;5.50;;
1366;SDS011;16877;48.810;9.282;2022-08-18T08:45:41;7.07;;;6.40;;
1366;SDS011;16877;48.810;9.282;2022-08-18T08:48:14;5.70;;;5.20;;
1366;SDS011;16877;48.810;9.282;2022-08-18T08:50:47;6.13;;;5.53;;
1366;SDS011;16877;48.810;9.282;2022-08-18T08:53:19;6.10;;;5.57;;
1366;SDS011;16877;48.810;9.282;2022-08-18T08:55:51;7.80;;;6.30;;
1366;SDS011;16877;48.810;9.282;2022-08-18T08:58:21;6.10;;;5.60;;
1366;SDS011;16877;48.810;9.282;2022-08-18T09:00:52;6.27;;;5.77;;
1366;SDS011;16877;48.810;9.282;2022-08-18T09:03:24;5.77;;;5.27;;
1366;SDS011;16877;48.810;9.282;2022-08-18T09:06:00;5.90;;;5.40;;
1366;SDS011;16877;48.810;9.282;2022-08-18T09:08:37;4.97;;;4.57;;
1366;SDS011;16877;48.810;9.282;2022-08-18T09:11:21;5.50;;;5.00;;
1366;SDS011;16877;48.810;9.282;2022-08-18T09:14:05;5.23;;;4.73;;
1366;SDS011;16877;48.810;9.282;2022-08-18T09:16:53;5.73;;;5.23;;
1366;SDS011;16877;48.810;9.282;2022-08-18T09:19:41;5.03;;;4.60;;
1366;SDS011;16877;48.810;9.282;2022-08-18T09:22:22;5.40;;;4.90;;
1366;SDS011;16877;48.810;9.282;2022-08-18T09:24:58;4.80;;;4.40;;
1366;SDS011;16877;48.810;9.282;2022-08-18T09:27:29;5.80;;;5.20;;
1366;SDS011;16877;48.810;9.282;2022-08-18T09:30:03;5.10;;;4.67;;
1366;SDS011;16877;48.810;9.282;2022-08-18T09:32:42;5.30;;;4.80;;
1366;SDS011;16877;48.810;9.282;2022-08-18T09:35:23;6.40;;;5.80;;
1366;SDS011;16877;48.810;9.282;2022-08-18T09:38:10;5.33;;;4.90;;
1366;SDS011;16877;48.810;9.282;2022-08-18T09:41:03;5.90;;;5.30;;
1366;SDS011;16877;48.810;9.282;2022-08-18T09:43:58;9.13;;;5.93;;
1366;SDS011;16877;48.810;9.282;2022-08-18T09:46:49;5.87;;;5.30;;
1366;SDS011;16877;48.810;9.282;2022-08-18T09:49:39;6.03;;;5.47;;
1366;SDS011;16877;48.810;9.282;2022-08-18T09:55:36;5.23;;;4.80;;
1366;SDS011;16877;48.810;9.282;2022-08-18T09:58:19;6.30;;;5.70;;
1366;SDS011;16877;48.810;9.282;2022-08-18T10:07:26;5.80;;;5.30;;
1366;SDS011;16877;48.810;9.282;2022-08-18T10:10:06;5.17;;;4.77;;
1366;SDS011;16877;48.810;9.282;2022-08-18T10:12:41;5.70;;;5.07;;
1366;SDS011;16877;48.810;9.282;2022-08-18T10:15:21;6.63;;;5.73;;
1366;SDS011;16877;48.810;9.282;2022-08-18T10:18:00;5.63;;;5.13;;
1366;SDS011;16877;48.810;9.282;2022-08-18T10:20:46;6.03;;;5.40;;
1366;SDS011;16877;48.810;9.282;2022-08-18T10:29:50;6.03;;;5.43;;
1366;SDS011;16877;48.810;9.282;2022-08-18T10:41:11;6.50;;;5.17;;
1366;SDS011;16877;48.810;9.282;2022-08-18T10:43:45;10.40;;;7.00;;
1366;SDS011;16877;48.810;9.282;2022-08-18T10:46:16;7.30;;;6.70;;
1366;SDS011;16877;48.810;9.282;2022-08-18T10:48:56;7.33;;;6.70;;
1366;SDS011;16877;48.810;9.282;2022-08-18T10:51:31;7.50;;;6.70;;
1366;SDS011;16877;48.810;9.282;2022-08-18T10:54:23;7.03;;;6.47;;
1366;SDS011;16877;48.810;9.282;2022-08-18T10:56:56;7.17;;;6.57;;
1366;SDS011;16877;48.810;9.282;2022-08-18T10:59:35;7.80;;;7.00;;
1366;SDS011;16877;48.810;9.282;2022-08-18T11:02:17;7.60;;;6.90;;
1366;SDS011;16877;48.810;9.282;2022-08-18T11:05:10;9.73;;;8.50;;
1366;SDS011;16877;48.810;9.282;2022-08-18T11:07:39;7.67;;;7.03;;
1366;SDS011;16877;48.810;9.282;2022-08-18T11:10:15;6.73;;;6.03;;
1366;SDS011;16877;48.810;9.282;2022-08-18T11:12:53;8.13;;;7.43;;
1366;SDS011;16877;48.810;9.282;2022-08-18T11:15:28;8.37;;;7.67;;
1366;SDS011;16877;48.810;9.282;2022-08-18T11:18:10;7.10;;;6.40;;
1366;SDS011;16877;48.810;9.282;2022-08-18T11:20:52;7.90;;;7.10;;
1366;SDS011;16877;48.810;9.282;2022-08-18T11:23:20;8.80;;;8.00;;
1366;SDS011;16877;48.810;9.282;2022-08-18T11:25:46;8.30;;;7.50;;
1366;SDS011;16877;48.810;9.282;2022-08-18T11:28:14;8.20;;;7.50;;
1366;SDS011;16877;48.810;9.282;2022-08-18T11:30:41;7.30;;;6.60;;
1366;SDS011;16877;48.810;9.282;2022-08-18T11:33:14;7.70;;;7.00;;
1366;SDS011;16877;48.810;9.282;2022-08-18T11:35:45;8.20;;;7.40;;
1366;SDS011;16877;48.810;9.282;2022-08-18T11:38:15;8.70;;;7.80;;
1366;SDS011;16877;48.810;9.282;2022-08-18T11:40:44;8.70;;;7.90;;
1366;SDS011;16877;48.810;9.282;2022-08-18T11:43:13;8.27;;;7.57;;
1366;SDS011;16877;48.810;9.282;2022-08-18T11:45:52;9.63;;;8.73;;
1366;SDS011;16877;48.810;9.282;2022-08-18T11:48:30;6.27;;;5.77;;
1366;SDS011;16877;48.810;9.282;2022-08-18T11:51:01;8.80;;;8.10;;
1366;SDS011;16877;48.810;9.282;2022-08-18T11:53:50;9.90;;;8.00;;
1366;SDS011;16877;48.810;9.282;2022-08-18T11:56:21;8.77;;;7.90;;
1366;SDS011;16877;48.810;9.282;2022-08-18T11:58:51;7.70;;;7.03;;
1366;SDS011;16877;48.810;9.282;2022-08-18T12:01:30;8.80;;;8.00;;
1366;SDS011;16877;48.810;9.282;2022-08-18T12:04:08;8.20;;;7.40;;
1366;SDS011;16877;48.810;9.282;2022-08-18T12:06:53;7.20;;;6.57;;
1366;SDS011;16877;48.810;9.282;2022-08-18T12:09:26;8.57;;;7.80;;
1366;SDS011;16877;48.810;9.282;2022-08-18T12:12:00;7.70;;;7.10;;
1366;SDS011;16877;48.810;9.282;2022-08-18T12:14:29;8.40;;;7.67;;
1366;SDS011;16877;48.810;9.282;2022-08-18T12:16:58;9.83;;;8.30;;
1366;SDS011;16877;48.810;9.282;2022-08-18T12:19:27;8.03;;;7.37;;
1366;SDS011;16877;48.810;9.282;2022-08-18T12:21:55;7.40;;;6.80;;
1366;SDS011;16877;48.810;9.282;2022-08-18T12:24:24;7.03;;;6.43;;
1366;SDS011;16877;48.810;9.282;2022-08-18T12:26:52;8.23;;;7.40;;
1366;SDS011;16877;48.810;9.282;2022-08-18T12:29:20;9.67;;;8.63;;
1366;SDS011;16877;48.810;9.282;2022-08-18T12:31:47;7.50;;;6.80;;
1366;SDS011;16877;48.810;9.282;2022-08-18T12:34:15;7.87;;;7.17;;
1366;SDS011;16877;48.810;9.282;2022-08-18T12:36:45;8.63;;;7.83;;
1366;SDS011;16877;48.810;9.282;2022-08-18T12:39:12;8.27;;;7.57;;
1366;SDS011;16877;48.810;9.282;2022-08-18T12:41:38;7.37;;;6.77;;
1366;SDS011;16877;48.810;9.282;2022-08-18T12:44:05;7.20;;;6.60;;
1366;SDS011;16877;48.810;9.282;2022-08-18T12:46:32;9.53;;;8.73;;
1366;SDS011;16877;48.810;9.282;2022-08-18T12:48:58;9.33;;;7.80;;
1366;SDS011;16877;48.810;9.282;2022-08-18T12:51:27;7.70;;;7.00;;
1366;SDS011;16877;48.810;9.282;2022-08-18T12:53:55;8.43;;;7.63;;
1366;SDS011;16877;48.810;9.282;2022-08-18T12:56:23;8.17;;;7.47;;
1366;SDS011;16877;48.810;9.282;2022-08-18T12:58:54;8.30;;;7.60;;
1366;SDS011;16877;48.810;9.282;2022-08-18T13:01:21;7.60;;;6.90;;
1366;SDS011;16877;48.810;9.282;2022-08-18T13:03:50;7.50;;;6.90;;
1366;SDS011;16877;48.810;9.282;2022-08-18T13:06:19;8.00;;;7.30;;
1366;SDS011;16877;48.810;9.282;2022-08-18T13:08:47;8.03;;;7.33;;
1366;SDS011;16877;48.810;9.282;2022-08-18T13:11:15;6.87;;;6.27;;
1366;SDS011;16877;48.810;9.282;2022-08-18T13:13:42;7.70;;;7.00;;
1366;SDS011;16877;48.810;9.282;2022-08-18T13:16:09;8.20;;;7.50;;
1366;SDS011;16877;48.810;9.282;2022-08-18T13:18:38;8.00;;;7.40;;
1366;SDS011;16877;48.810;9.282;2022-08-18T13:21:06;7.60;;;7.00;;
1366;SDS011;16877;48.810;9.282;2022-08-18T13:23:35;8.00;;;7.30;;
1366;SDS011;16877;48.810;9.282;2022-08-18T13:26:02;8.33;;;7.60;;
1366;SDS011;16877;48.810;9.282;2022-08-18T13:28:32;6.60;;;6.10;;
1366;SDS011;16877;48.810;9.282;2022-08-18T13:31:00;7.00;;;6.40;;
1366;SDS011;16877;48.810;9.282;2022-08-18T13:33:27;6.50;;;5.90;;
1366;SDS011;16877;48.810;9.282;2022-08-18T13:35:54;6.77;;;6.17;;
1366;SDS011;16877;48.810;9.282;2022-08-18T13:38:21;6.43;;;5.83;;
1366;SDS011;16877;48.810;9.282;2022-08-18T13:40:49;6.50;;;6.00;;
1366;SDS011;16877;48.810;9.282;2022-08-18T13:43:18;6.87;;;6.30;;
1366;SDS011;16877;48.810;9.282;2022-08-18T13:45:49;6.30;;;5.67;;
1366;SDS011;16877;48.810;9.282;2022-08-18T13:48:15;6.20;;;5.70;;
1366;SDS011;16877;48.810;9.282;2022-08-18T13:50:42;6.50;;;5.90;;
1366;SDS011;16877;48.810;9.282;2022-08-18T13:53:11;6.03;;;5.53;;
1366;SDS011;16877;48.810;9.282;2022-08-18T13:55:42;6.37;;;5.80;;
1366;SDS011;16877;48.810;9.282;2022-08-18T13:58:09;6.60;;;6.00;;
1366;SDS011;16877;48.810;9.282;2022-08-18T14:00:36;6.73;;;5.83;;
1366;SDS011;16877;48.810;9.282;2022-08-18T14:03:05;8.10;;;7.30;;
1366;SDS011;16877;48.810;9.282;2022-08-18T14:05:33;6.17;;;5.67;;
1366;SDS011;16877;48.810;9.282;2022-08-18T14:08:00;6.33;;;5.73;;
1366;SDS011;16877;48.810;9.282;2022-08-18T14:10:28;7.73;;;7.00;;
1366;SDS011;16877;48.810;9.282;2022-08-18T14:12:56;5.93;;;5.43;;
1366;SDS011;16877;48.810;9.282;2022-08-18T14:15:25;6.10;;;5.60;;
1366;SDS011;16877;48.810;9.282;2022-08-18T14:17:52;8.00;;;5.73;;
1366;SDS011;16877;48.810;9.282;2022-08-18T14:20:20;6.20;;;5.70;;
1366;SDS011;16877;48.810;9.282;2022-08-18T14:23:04;7.93;;;6.20;;
1366;SDS011;16877;48.810;9.282;2022-08-18T14:25:48;6.83;;;6.23;;
1366;SDS011;16877;48.810;9.282;2022-08-18T14:28:35;7.67;;;5.93;;
1366;SDS011;16877;48.810;9.282;2022-08-18T14:31:02;6.07;;;5.47;;
1366;SDS011;16877;48.810;9.282;2022-08-18T14:33:29;5.97;;;5.47;;
1366;SDS011;16877;48.810;9.282;2022-08-18T14:35:58;5.90;;;5.40;;
1366;SDS011;16877;48.810;9.282;2022-08-18T14:38:24;7.50;;;5.60;;
1366;SDS011;16877;48.810;9.282;2022-08-18T14:40:51;6.37;;;5.80;;
1366;SDS011;16877;48.810;9.282;2022-08-18T14:43:18;5.77;;;5.27;;
1366;SDS011;16877;48.810;9.282;2022-08-18T14:45:46;6.50;;;5.90;;
1366;SDS011;16877;48.810;9.282;2022-08-18T14:48:14;6.13;;;5.63;;
1366;SDS011;16877;48.810;9.282;2022-08-18T14:50:44;5.70;;;5.30;;
1366;SDS011;16877;48.810;9.282;2022-08-18T14:53:13;6.40;;;5.33;;
1366;SDS011;16877;48.810;9.282;2022-08-18T14:55:41;6.10;;;5.50;;
1366;SDS011;16877;48.810;9.282;2022-08-18T14:58:08;6.30;;;5.80;;
1366;SDS011;16877;48.810;9.282;2022-08-18T15:00:34;5.70;;;5.13;;
1366;SDS011;16877;48.810;9.282;2022-08-18T15:03:02;6.43;;;5.90;;
1366;SDS011;16877;48.810;9.282;2022-08-18T15:05:30;6.57;;;6.00;;
1366;SDS011;16877;48.810;9.282;2022-08-18T15:07:57;6.60;;;6.00;;
1366;SDS011;16877;48.810;9.282;2022-08-18T15:10:28;6.63;;;6.03;;
1366;SDS011;16877;48.810;9.282;2022-08-18T15:12:55;6.10;;;5.60;;
1366;SDS011;16877;48.810;9.282;2022-08-18T15:15:23;6.50;;;6.00;;
1366;SDS011;16877;48.810;9.282;2022-08-18T15:17:50;7.60;;;5.90;;
1366;SDS011;16877;48.810;9.282;2022-08-18T15:20:17;6.30;;;5.63;;
1366;SDS011;16877;48.810;9.282;2022-08-18T15:22:44;6.40;;;5.90;;
1366;SDS011;16877;48.810;9.282;2022-08-18T15:25:30;7.00;;;6.30;;
1366;SDS011;16877;48.810;9.282;2022-08-18T15:28:10;6.60;;;6.10;;
1366;SDS011;16877;48.810;9.282;2022-08-18T15:30:38;6.97;;;6.27;;
1366;SDS011;16877;48.810;9.282;2022-08-18T15:33:06;7.00;;;6.03;;
1366;SDS011;16877;48.810;9.282;2022-08-18T15:35:34;7.30;;;6.70;;
1366;SDS011;16877;48.810;9.282;2022-08-18T15:38:03;7.20;;;6.60;;
1366;SDS011;16877;48.810;9.282;2022-08-18T15:40:33;6.13;;;5.53;;
1366;SDS011;16877;48.810;9.282;2022-08-18T15:43:00;7.30;;;6.70;;
1366;SDS011;16877;48.810;9.282;2022-08-18T15:45:28;6.63;;;6.13;;
1366;SDS011;16877;48.810;9.282;2022-08-18T15:47:57;6.60;;;6.07;;
1366;SDS011;16877;48.810;9.282;2022-08-18T15:50:24;7.50;;;6.80;;
1366;SDS011;16877;48.810;9.282;2022-08-18T15:52:51;7.93;;;7.13;;
1366;SDS011;16877;48.810;9.282;2022-08-18T15:55:20;8.47;;;7.77;;